createdAt,value
2018-02-20T00:00:53.669Z,90.30
2018-02-20T00:03:23.754Z,90.40
2018-02-20T00:05:52.442Z,90.40
2018-02-20T00:08:21.484Z,90.20
2018-02-20T00:10:50.149Z,90.20
2018-02-20T00:13:19.658Z,90.40
2018-02-20T00:15:49.099Z,90.50
2018-02-20T00:18:17.817Z,90.40
2018-02-20T00:20:46.519Z,90.40
2018-02-20T00:23:15.212Z,90.40
2018-02-20T00:25:43.922Z,90.40
2018-02-20T00:28:13.383Z,90.70
2018-02-20T00:30:42.089Z,90.60
2018-02-20T00:33:10.783Z,90.70
2018-02-20T00:35:40.257Z,90.70
2018-02-20T00:38:09.163Z,90.70
2018-02-20T00:40:37.832Z,90.70
2018-02-20T00:43:06.788Z,90.70
2018-02-20T00:45:35.476Z,90.80
2018-02-20T00:48:04.161Z,90.80
2018-02-20T00:50:34.735Z,90.80
2018-02-20T00:53:04.120Z,90.70
2018-02-20T00:55:32.798Z,90.70
2018-02-20T00:58:01.566Z,90.80
2018-02-20T01:00:31.334Z,91.00
2018-02-20T01:03:00.269Z,91.00
2018-02-20T01:05:29.717Z,90.90
2018-02-20T01:07:58.613Z,90.90
2018-02-20T01:10:27.322Z,90.70
2018-02-20T01:12:56.281Z,90.90
2018-02-20T01:15:25.730Z,90.60
2018-02-20T01:17:54.799Z,90.60
2018-02-20T01:20:23.481Z,90.60
2018-02-20T01:22:52.227Z,90.60
2018-02-20T01:25:21.881Z,91.00
2018-02-20T01:27:50.603Z,91.00
2018-02-20T01:30:19.645Z,90.80
2018-02-20T01:32:49.011Z,90.70
2018-02-20T01:35:18.477Z,90.90
2018-02-20T01:37:47.149Z,90.90
2018-02-20T01:40:15.846Z,90.90
2018-02-20T01:42:44.598Z,91.00
2018-02-20T01:45:14.126Z,90.60
2018-02-20T01:47:43.034Z,90.50
2018-02-20T01:50:11.758Z,90.40
2018-02-20T01:52:40.440Z,90.60
2018-02-20T01:55:09.124Z,90.80
2018-02-20T01:57:37.836Z,90.80
2018-02-20T02:00:09.295Z,90.40
2018-02-20T02:02:38.755Z,90.40
2018-02-20T02:05:07.823Z,90.40
2018-02-20T02:07:37.205Z,90.20
2018-02-20T02:10:06.610Z,90.40
2018-02-20T02:12:36.087Z,90.50
2018-02-20T02:15:07.815Z,90.50
2018-02-20T02:17:36.496Z,90.00
2018-02-20T02:20:05.186Z,90.30
2018-02-20T02:22:33.899Z,90.50
2018-02-20T02:25:02.641Z,90.40
2018-02-20T02:27:31.470Z,90.40
2018-02-20T02:30:00.169Z,90.70
2018-02-20T02:32:28.897Z,90.50
2018-02-20T02:34:57.618Z,90.30
2018-02-20T02:37:26.654Z,90.40
2018-02-20T02:39:56.032Z,90.60
2018-02-20T02:42:25.425Z,90.90
2018-02-20T02:44:54.085Z,90.90
2018-02-20T02:47:22.787Z,90.90
2018-02-20T02:49:53.690Z,90.80
2018-02-20T02:52:22.632Z,90.90
2018-02-20T02:54:51.326Z,90.90
2018-02-20T02:57:20.003Z,91.00
2018-02-20T02:59:48.678Z,91.00
2018-02-20T03:02:17.374Z,90.80
2018-02-20T03:04:48.474Z,91.10
2018-02-20T03:07:17.914Z,91.00
2018-02-20T03:09:46.798Z,91.00
2018-02-20T03:12:15.458Z,90.90
2018-02-20T03:14:45.258Z,91.40
2018-02-20T03:17:14.660Z,91.30
2018-02-20T03:19:43.366Z,91.20
2018-02-20T03:22:13.358Z,91.30
2018-02-20T03:24:42.051Z,91.30
2018-02-20T03:27:10.725Z,91.40
2018-02-20T03:29:39.402Z,91.00
2018-02-20T03:32:08.117Z,91.20
2018-02-20T03:34:36.820Z,91.20
2018-02-20T03:37:09.605Z,91.30
2018-02-20T03:39:39.037Z,91.50
2018-02-20T03:42:07.725Z,91.50
2018-02-20T03:44:36.745Z,91.40
2018-02-20T03:47:05.446Z,91.20
2018-02-20T03:49:34.125Z,91.00
2018-02-20T03:52:03.098Z,90.70
2018-02-20T03:54:31.770Z,91.10
2018-02-20T03:57:00.465Z,91.20
2018-02-20T03:59:29.154Z,91.40
2018-02-20T04:01:57.830Z,91.50
2018-02-20T04:04:26.868Z,91.60
2018-02-20T04:06:56.063Z,91.60
2018-02-20T04:09:24.753Z,91.60
2018-02-20T04:11:53.465Z,91.50
2018-02-20T04:14:22.142Z,91.70
2018-02-20T04:16:50.818Z,91.70
2018-02-20T04:19:19.561Z,91.30
2018-02-20T04:21:48.254Z,91.50
2018-02-20T04:24:17.001Z,91.50
2018-02-20T04:26:46.470Z,91.50
2018-02-20T04:29:15.479Z,91.50
2018-02-20T04:31:44.753Z,91.60
2018-02-20T04:34:13.440Z,91.60
2018-02-20T04:36:42.507Z,91.60
2018-02-20T04:39:11.867Z,91.50
2018-02-20T04:41:40.609Z,91.60
2018-02-20T04:44:09.274Z,91.40
2018-02-20T04:46:38.714Z,91.60
2018-02-20T04:49:07.418Z,91.50
2018-02-20T04:51:36.125Z,91.60
2018-02-20T04:54:04.805Z,91.60
2018-02-20T04:56:33.502Z,91.30
2018-02-20T04:59:02.178Z,91.30
2018-02-20T05:01:30.938Z,91.10
2018-02-20T05:03:59.874Z,91.50
2018-02-20T05:06:28.554Z,91.10
2018-02-20T05:08:57.563Z,91.30
2018-02-20T05:11:27.014Z,91.10
2018-02-20T05:13:55.677Z,91.10
2018-02-20T05:16:25.190Z,91.20
2018-02-20T05:18:54.101Z,91.20
2018-02-20T05:21:22.790Z,91.50
2018-02-20T05:23:51.493Z,91.70
2018-02-20T05:26:21.150Z,91.60
2018-02-20T05:28:50.293Z,91.20
2018-02-20T05:31:19.070Z,91.30
2018-02-20T05:33:47.749Z,91.20
2018-02-20T05:36:16.675Z,91.40
2018-02-20T05:38:45.769Z,91.30
2018-02-20T05:41:15.217Z,91.40
2018-02-20T05:43:43.919Z,91.40
2018-02-20T05:46:13.886Z,91.30
2018-02-20T05:48:42.589Z,91.30
2018-02-20T05:51:11.615Z,91.20
2018-02-20T05:53:41.110Z,91.50
2018-02-20T05:56:09.817Z,91.50
2018-02-20T05:58:38.888Z,91.40
2018-02-20T06:01:08.098Z,91.60
2018-02-20T06:03:37.789Z,91.70
2018-02-20T06:06:07.031Z,91.70
2018-02-20T06:08:36.254Z,91.80
2018-02-20T06:11:05.590Z,91.90
2018-02-20T06:13:35.015Z,91.90
2018-02-20T06:16:04.336Z,91.90
2018-02-20T06:18:34.543Z,91.80
2018-02-20T06:21:04.935Z,91.80
2018-02-20T06:23:33.620Z,91.80
2018-02-20T06:26:02.349Z,91.80
2018-02-20T06:28:31.385Z,91.70
2018-02-20T06:31:00.509Z,91.50
2018-02-20T06:33:29.237Z,91.10
2018-02-20T06:35:58.253Z,91.20
2018-02-20T06:38:26.941Z,91.00
2018-02-20T06:40:55.711Z,91.00
2018-02-20T06:43:25.379Z,91.10
2018-02-20T06:45:54.122Z,91.10
2018-02-20T06:48:22.851Z,91.00
2018-02-20T06:50:51.586Z,91.00
2018-02-20T06:53:21.788Z,91.00
2018-02-20T06:55:51.149Z,91.00
2018-02-20T06:58:19.846Z,91.00
2018-02-20T07:00:48.542Z,91.30
2018-02-20T07:03:17.302Z,91.00
2018-02-20T07:05:46.039Z,90.40
2018-02-20T07:08:15.513Z,90.70
2018-02-20T07:10:44.234Z,90.70
2018-02-20T07:13:13.631Z,90.80
2018-02-20T07:15:43.003Z,90.80
2018-02-20T07:18:11.707Z,90.50
2018-02-20T07:20:40.394Z,90.40
2018-02-20T07:23:09.382Z,90.50
2018-02-20T07:25:38.534Z,90.00
2018-02-20T07:28:07.326Z,90.00
2018-02-20T07:30:36.806Z,90.30
2018-02-20T07:33:05.806Z,90.60
2018-02-20T07:35:34.514Z,90.10
2018-02-20T07:38:03.829Z,90.50
2018-02-20T07:40:32.588Z,90.40
2018-02-20T07:43:01.946Z,89.50
2018-02-20T07:45:31.330Z,89.50
2018-02-20T07:48:00.065Z,87.40
2018-02-20T07:50:28.757Z,88.10
2018-02-20T07:52:57.469Z,87.80
2018-02-20T07:55:27.030Z,87.10
2018-02-20T07:57:56.172Z,87.10
2018-02-20T08:00:25.781Z,87.20
2018-02-20T08:02:55.243Z,87.70
2018-02-20T08:05:23.939Z,87.70
2018-02-20T08:07:52.902Z,87.60
2018-02-20T08:10:21.652Z,86.10
2018-02-20T08:12:51.446Z,85.20
2018-02-20T08:15:20.692Z,85.10
2018-02-20T08:17:50.067Z,86.50
2018-02-20T08:20:18.755Z,85.20
2018-02-20T08:22:47.668Z,85.30
2018-02-20T08:25:17.137Z,85.70
2018-02-20T08:27:46.575Z,85.70
2018-02-20T08:30:16.042Z,85.10
2018-02-20T08:32:45.269Z,85.10
2018-02-20T08:35:14.747Z,84.90
2018-02-20T08:37:43.998Z,84.80
2018-02-20T08:40:13.646Z,84.90
2018-02-20T08:42:42.734Z,84.90
2018-02-20T08:45:11.482Z,83.50
2018-02-20T08:47:40.961Z,83.70
2018-02-20T08:50:10.069Z,83.70
2018-02-20T08:52:38.875Z,83.40
2018-02-20T08:55:08.824Z,83.60
2018-02-20T08:57:38.366Z,83.50
2018-02-20T09:00:07.121Z,82.20
2018-02-20T09:02:36.802Z,82.90
2018-02-20T09:05:06.987Z,81.20
2018-02-20T09:07:35.723Z,81.20
2018-02-20T09:10:04.115Z,81.80
2018-02-20T09:12:33.184Z,83.40
2018-02-20T09:15:02.705Z,85.10
2018-02-20T09:17:31.644Z,85.70
2018-02-20T09:20:00.590Z,84.30
2018-02-20T09:22:29.634Z,83.50
2018-02-20T09:24:58.882Z,83.20
2018-02-20T09:27:28.235Z,82.30
2018-02-20T09:29:57.591Z,82.70
2018-02-20T09:32:26.960Z,83.10
2018-02-20T09:34:56.339Z,82.80
2018-02-20T09:37:25.701Z,82.40
2018-02-20T09:39:55.070Z,82.00
2018-02-20T09:42:24.422Z,81.90
2018-02-20T09:44:54.117Z,82.20
2018-02-20T09:47:24.151Z,82.70
2018-02-20T09:49:53.527Z,82.80
2018-02-20T09:52:23.022Z,80.90
2018-02-20T09:54:53.270Z,80.10
2018-02-20T09:57:22.913Z,79.40
2018-02-20T09:59:52.054Z,79.40
2018-02-20T10:02:21.354Z,79.10
2018-02-20T10:04:50.731Z,79.40
2018-02-20T10:07:20.100Z,78.30
2018-02-20T10:09:49.466Z,76.60
2018-02-20T10:12:18.835Z,76.30
2018-02-20T10:14:48.171Z,76.10
2018-02-20T10:17:17.542Z,75.60
2018-02-20T10:19:46.268Z,74.80
2018-02-20T10:22:16.275Z,77.20
2018-02-20T10:24:45.648Z,77.20
2018-02-20T10:27:15.021Z,75.90
2018-02-20T10:29:44.408Z,76.30
2018-02-20T10:32:14.766Z,76.60
2018-02-20T10:34:44.134Z,76.60
2018-02-20T10:37:13.790Z,76.40
2018-02-20T10:39:42.869Z,76.40
2018-02-20T10:42:12.380Z,76.00
2018-02-20T10:44:41.626Z,76.00
2018-02-20T10:47:10.982Z,76.70
2018-02-20T10:49:40.361Z,76.40
2018-02-20T10:52:10.012Z,74.00
2018-02-20T10:54:39.085Z,73.90
2018-02-20T10:57:08.466Z,69.90
2018-02-20T10:59:38.104Z,69.60
2018-02-20T11:02:07.655Z,69.60
2018-02-20T11:04:37.560Z,68.10
2018-02-20T11:07:06.939Z,67.30
2018-02-20T11:09:36.404Z,67.10
2018-02-20T11:12:06.117Z,68.20
2018-02-20T11:14:35.883Z,69.90
2018-02-20T11:17:04.658Z,69.80
2018-02-20T11:19:35.056Z,70.30
2018-02-20T11:22:05.165Z,72.00
2018-02-20T11:24:34.290Z,72.00
2018-02-20T11:27:03.134Z,73.30
2018-02-20T11:29:32.214Z,73.80
2018-02-20T11:32:00.977Z,74.00
2018-02-20T11:34:29.931Z,71.90
2018-02-20T11:36:59.298Z,70.80
2018-02-20T11:39:28.671Z,71.90
2018-02-20T11:42:00.119Z,69.80
2018-02-20T11:44:28.923Z,69.90
2018-02-20T11:47:03.067Z,68.00
2018-02-20T11:49:36.229Z,68.60
2018-02-20T11:52:05.590Z,68.60
2018-02-20T11:54:34.323Z,69.50
2018-02-20T11:57:03.593Z,69.70
2018-02-20T11:59:33.114Z,69.90
2018-02-20T12:02:04.352Z,69.90
2018-02-20T12:04:34.426Z,72.80
2018-02-20T12:07:03.126Z,72.80
2018-02-20T12:09:32.215Z,72.70
2018-02-20T12:12:04.304Z,73.70
2018-02-20T12:14:33.030Z,74.30
2018-02-20T12:17:05.292Z,73.80
2018-02-20T12:19:33.986Z,74.60
2018-02-20T12:22:03.132Z,74.90
2018-02-20T12:24:32.377Z,75.80
2018-02-20T12:27:04.762Z,76.40
2018-02-20T12:29:34.121Z,75.90
2018-02-20T12:32:03.482Z,75.60
2018-02-20T12:34:32.854Z,75.30
2018-02-20T12:37:02.218Z,74.60
2018-02-20T12:39:30.786Z,74.10
2018-02-20T12:41:59.923Z,74.30
2018-02-20T12:44:29.579Z,77.20
2018-02-20T12:46:58.309Z,77.20
2018-02-20T12:49:27.035Z,78.60
2018-02-20T12:51:55.776Z,79.40
2018-02-20T12:54:24.500Z,79.30
2018-02-20T12:56:53.397Z,79.50
2018-02-20T12:59:23.186Z,79.30
2018-02-20T13:01:52.123Z,80.80
2018-02-20T13:04:21.272Z,81.20
2018-02-20T13:06:50.574Z,81.90
2018-02-20T13:09:19.924Z,81.90
2018-02-20T13:11:49.284Z,82.40
2018-02-20T13:14:19.224Z,82.60
2018-02-20T13:16:48.317Z,83.00
2018-02-20T13:19:17.535Z,83.10
2018-02-20T13:21:46.281Z,82.70
2018-02-20T13:24:15.031Z,82.50
2018-02-20T13:26:44.450Z,82.00
2018-02-20T13:29:13.189Z,82.10
2018-02-20T13:31:42.187Z,81.90
2018-02-20T13:34:10.956Z,82.80
2018-02-20T13:36:40.918Z,82.70
2018-02-20T13:39:09.663Z,82.70
2018-02-20T13:41:39.630Z,82.50
2018-02-20T13:44:08.994Z,82.60
2018-02-20T13:46:39.595Z,83.00
2018-02-20T13:49:08.760Z,82.90
2018-02-20T13:51:38.120Z,82.90
2018-02-20T13:54:07.750Z,82.60
2018-02-20T13:56:37.893Z,83.00
2018-02-20T13:59:07.221Z,82.90
2018-02-20T14:01:36.598Z,83.50
2018-02-20T14:04:09.562Z,83.90
2018-02-20T14:06:38.643Z,83.70
2018-02-20T14:09:08.710Z,84.30
2018-02-20T14:11:38.109Z,84.30
2018-02-20T14:14:10.515Z,84.30
2018-02-20T14:16:43.961Z,85.20
2018-02-20T14:19:12.672Z,85.60
2018-02-20T14:21:42.661Z,85.70
2018-02-20T14:24:12.269Z,86.10
2018-02-20T14:26:42.880Z,86.30
2018-02-20T14:29:15.138Z,86.20
2018-02-20T14:31:46.596Z,86.10
2018-02-20T14:34:18.354Z,86.80
2018-02-20T14:39:21.333Z,87.50
2018-02-20T14:41:50.101Z,87.50
2018-02-20T14:44:21.049Z,87.40
2018-02-20T14:46:50.421Z,87.50
2018-02-20T14:49:20.094Z,88.50
2018-02-20T14:51:50.310Z,88.50
2018-02-20T14:54:19.542Z,88.40
2018-02-20T14:56:49.199Z,88.80
2018-02-20T14:59:19.937Z,88.80
2018-02-20T15:01:48.720Z,88.80
2018-02-20T15:04:21.037Z,88.70
2018-02-20T15:06:49.778Z,88.80
2018-02-20T15:09:21.779Z,88.60
2018-02-20T15:11:50.506Z,88.50
2018-02-20T15:14:19.567Z,88.20
2018-02-20T15:16:51.741Z,88.50
2018-02-20T15:19:21.255Z,88.60
2018-02-20T15:21:50.598Z,89.20
2018-02-20T15:24:19.942Z,90.20
2018-02-20T15:26:48.885Z,89.90
2018-02-20T15:29:17.865Z,89.60
2018-02-20T15:31:47.394Z,89.40
2018-02-20T15:34:16.561Z,89.40
2018-02-20T15:36:49.217Z,89.40
2018-02-20T15:39:17.917Z,89.40
2018-02-20T15:41:46.769Z,89.90
2018-02-20T15:44:15.519Z,89.60
2018-02-20T15:46:45.019Z,90.20
2018-02-20T15:49:14.820Z,90.10
2018-02-20T15:51:44.298Z,90.10
2018-02-20T15:54:13.042Z,90.10
2018-02-20T15:56:41.962Z,90.20
2018-02-20T15:59:11.607Z,90.20
2018-02-20T16:01:40.302Z,90.20
2018-02-20T16:04:09.051Z,90.40
2018-02-20T16:06:37.762Z,90.80
2018-02-20T16:09:06.517Z,91.40
2018-02-20T16:11:35.250Z,91.60
2018-02-20T16:14:19.278Z,91.30
2018-02-20T16:16:47.922Z,91.50
2018-02-20T16:19:16.882Z,91.50
2018-02-20T16:21:45.580Z,92.00
2018-02-20T16:24:15.805Z,91.70
2018-02-20T16:26:45.341Z,91.70
2018-02-20T16:29:14.384Z,91.70
2018-02-20T16:31:43.758Z,91.70
2018-02-20T16:34:13.115Z,91.80
2018-02-20T16:36:42.573Z,91.90
2018-02-20T16:39:11.819Z,91.90
2018-02-20T16:41:41.359Z,91.70
2018-02-20T16:44:10.531Z,91.70
2018-02-20T16:46:40.069Z,91.70
2018-02-20T16:49:08.777Z,91.70
2018-02-20T16:51:37.737Z,92.00
2018-02-20T16:54:06.939Z,92.10
2018-02-20T16:56:36.301Z,92.50
2018-02-20T16:59:05.020Z,92.50
2018-02-20T17:01:33.755Z,92.50
2018-02-20T17:04:02.509Z,92.50
2018-02-20T17:06:31.234Z,92.70
2018-02-20T17:09:00.333Z,92.70
2018-02-20T17:11:29.581Z,92.70
2018-02-20T17:13:59.791Z,92.80
2018-02-20T17:16:29.281Z,92.70
2018-02-20T17:18:58.470Z,92.70
2018-02-20T17:21:27.890Z,92.70
2018-02-20T17:23:57.186Z,92.60
2018-02-20T17:26:26.550Z,92.50
2018-02-20T17:28:55.914Z,92.50
2018-02-20T17:31:25.521Z,92.50
2018-02-20T17:33:54.602Z,92.50
2018-02-20T17:36:23.942Z,92.50
2018-02-20T17:38:53.559Z,92.50
2018-02-20T17:41:22.647Z,92.40
2018-02-20T17:43:51.998Z,92.70
2018-02-20T17:46:21.344Z,92.90
2018-02-20T17:48:51.718Z,92.80
2018-02-20T17:51:21.078Z,92.90
2018-02-20T17:53:53.214Z,92.90
2018-02-20T17:56:23.003Z,92.90
2018-02-20T17:58:52.178Z,92.70
2018-02-20T18:01:20.853Z,92.60
2018-02-20T18:03:50.856Z,92.80
2018-02-20T18:06:20.178Z,92.80
2018-02-20T18:08:48.860Z,92.80
2018-02-20T18:11:18.306Z,92.90
2018-02-20T18:13:47.038Z,92.90
2018-02-20T18:16:16.867Z,92.90
2018-02-20T18:18:45.943Z,92.90
2018-02-20T18:21:14.649Z,92.90
2018-02-20T18:23:43.311Z,92.90
2018-02-20T18:26:12.220Z,92.90
2018-02-20T18:28:40.900Z,93.00
2018-02-20T18:31:09.866Z,93.00
2018-02-20T18:33:39.049Z,92.80
2018-02-20T18:36:08.323Z,92.90
2018-02-20T18:38:37.805Z,92.70
2018-02-20T18:41:08.023Z,93.10
2018-02-20T18:43:37.638Z,92.80
2018-02-20T18:46:06.698Z,92.80
2018-02-20T18:48:36.040Z,92.70
2018-02-20T18:51:05.159Z,92.90
2018-02-20T18:53:34.023Z,92.90
2018-02-20T18:56:04.087Z,93.20
2018-02-20T18:58:33.424Z,93.10
2018-02-20T19:01:02.109Z,93.10
2018-02-20T19:03:31.658Z,93.10
2018-02-20T19:06:00.344Z,93.50
2018-02-20T19:08:29.040Z,93.10
2018-02-20T19:10:58.150Z,93.10
2018-02-20T22:25:31.091Z,84.10
